Time;durP1;ratioP1;P1;durP2;ratioP2;P2;SDS_P1;SDS_P2;PMS_P1;PMS_P2;Temp;Humidity;BMP_temperature;BMP_pressure;BME280_temperature;BME280_humidity;BME280_pressure;Samples;Min_cycle;Max_cycle;Signal;HPM_P1;HPM_P2
2022/07/16 00:03:03;;;;;;;2.67;1.23;;;14.50;99.90;;;;;;5073202;28;20181;-72
2022/07/16 00:05:30;;;;;;;1.50;1.20;;;14.40;99.90;;;;;;5072827;28;20961;-72
2022/07/16 00:07:55;;;;;;;1.20;1.10;;;14.40;99.90;;;;;;5073123;28;20167;-72
2022/07/16 00:10:21;;;;;;;1.37;1.00;;;14.30;99.90;;;;;;5073003;28;20994;-72
2022/07/16 00:12:47;;;;;;;2.23;1.63;;;14.30;99.90;;;;;;5073177;28;20170;-73
2022/07/16 00:15:12;;;;;;;1.37;1.27;;;14.20;99.90;;;;;;5073035;28;20273;-73
2022/07/16 00:17:38;;;;;;;1.17;1.00;;;14.20;99.90;;;;;;5073106;28;20167;-73
2022/07/16 00:20:05;;;;;;;1.33;1.20;;;14.20;99.90;;;;;;5073084;28;20182;-73
2022/07/16 00:22:30;;;;;;;1.63;1.47;;;14.20;99.90;;;;;;5073123;28;20158;-73
2022/07/16 00:24:56;;;;;;;1.73;1.43;;;14.10;99.90;;;;;;5072737;28;20395;-73
2022/07/16 00:27:21;;;;;;;2.83;1.53;;;14.10;99.90;;;;;;5072426;28;20263;-72
2022/07/16 00:29:48;;;;;;;1.60;1.50;;;14.10;99.90;;;;;;5072665;28;20197;-72
2022/07/16 00:32:14;;;;;;;2.13;1.60;;;14.10;99.90;;;;;;5072695;28;20778;-72
2022/07/16 00:34:40;;;;;;;2.20;1.67;;;14.10;99.90;;;;;;5072204;28;20407;-72
2022/07/16 00:37:05;;;;;;;1.93;1.37;;;14.10;99.90;;;;;;5072439;28;20862;-72
2022/07/16 00:39:31;;;;;;;2.47;2.27;;;14.00;99.90;;;;;;5072476;28;20424;-72
2022/07/16 00:41:57;;;;;;;1.80;1.23;;;14.00;99.90;;;;;;5072366;28;20515;-72
2022/07/16 00:44:23;;;;;;;1.40;1.30;;;14.00;99.90;;;;;;5072200;28;20601;-72
2022/07/16 00:46:49;;;;;;;1.80;1.63;;;13.90;99.90;;;;;;5072358;28;20432;-72
2022/07/16 00:49:15;;;;;;;2.90;1.63;;;13.90;99.90;;;;;;5072334;28;20843;-72
2022/07/16 00:51:46;;;;;;;1.77;1.43;;;13.90;99.90;;;;;;5071948;28;20484;-72
2022/07/16 00:54:12;;;;;;;2.70;1.60;;;13.80;99.90;;;;;;5072254;28;20414;-72
2022/07/16 00:56:38;;;;;;;1.27;1.10;;;13.70;99.90;;;;;;5071333;28;20490;-73
2022/07/16 00:59:04;;;;;;;1.50;1.40;;;13.70;99.90;;;;;;5072553;28;20445;-73
2022/07/16 01:01:30;;;;;;;2.00;1.40;;;13.70;99.90;;;;;;5072407;28;20162;-72
2022/07/16 01:03:56;;;;;;;1.33;1.23;;;13.60;99.90;;;;;;5072664;28;20201;-72
2022/07/16 01:06:22;;;;;;;2.43;2.30;;;13.60;99.90;;;;;;5072349;28;20223;-73
2022/07/16 01:08:48;;;;;;;1.60;1.30;;;13.50;99.90;;;;;;5071175;28;20186;-72
2022/07/16 01:11:17;;;;;;;1.97;1.73;;;13.50;99.90;;;;;;5072340;28;20408;-73
2022/07/16 01:13:45;;;;;;;1.47;1.20;;;13.50;99.90;;;;;;5072368;28;20906;-73
2022/07/16 01:16:12;;;;;;;2.07;1.40;;;13.50;99.90;;;;;;5071969;28;20550;-73
2022/07/16 01:18:39;;;;;;;2.17;1.53;;;13.40;99.90;;;;;;5072035;28;20401;-72
2022/07/16 01:21:05;;;;;;;1.50;1.40;;;13.40;99.90;;;;;;5072078;28;20461;-72
2022/07/16 01:23:31;;;;;;;4.13;1.73;;;13.30;99.90;;;;;;5072106;28;20819;-72
2022/07/16 01:25:57;;;;;;;1.77;1.27;;;13.30;99.90;;;;;;5073753;28;20257;-73
2022/07/16 01:28:22;;;;;;;2.63;2.43;;;13.30;99.90;;;;;;5074062;28;20714;-73
2022/07/16 01:30:49;;;;;;;1.57;1.40;;;13.30;99.90;;;;;;5073112;28;20205;-73
2022/07/16 01:33:26;;;;;;;2.47;1.60;;;13.30;99.90;;;;;;5070433;28;20209;-72
2022/07/16 01:36:01;;;;;;;2.13;1.90;;;13.30;99.90;;;;;;5071566;28;20466;-72
2022/07/16 01:38:27;;;;;;;5.90;1.43;;;13.30;99.90;;;;;;5073475;28;20475;-72
2022/07/16 01:40:54;;;;;;;1.97;1.57;;;13.30;99.90;;;;;;5075994;28;20496;-72
2022/07/16 01:43:22;;;;;;;2.03;1.67;;;13.30;99.90;;;;;;5075776;28;20162;-72
2022/07/16 01:45:48;;;;;;;1.60;1.43;;;13.30;99.90;;;;;;5075603;28;20436;-72
2022/07/16 01:48:14;;;;;;;3.10;1.60;;;13.30;99.90;;;;;;5075813;28;20439;-72
2022/07/16 01:50:42;;;;;;;4.43;2.30;;;13.20;99.90;;;;;;5075609;28;20485;-72
2022/07/16 01:53:08;;;;;;;1.40;1.13;;;13.20;99.90;;;;;;5075651;28;20432;-72
2022/07/16 01:55:34;;;;;;;2.17;1.97;;;13.20;99.90;;;;;;5075243;28;20510;-72
2022/07/16 01:58:01;;;;;;;1.33;1.23;;;13.20;99.90;;;;;;5075662;28;20800;-72
2022/07/16 02:00:27;;;;;;;1.40;1.30;;;13.10;99.90;;;;;;5075404;28;20489;-72
2022/07/16 02:02:52;;;;;;;7.20;1.70;;;13.10;99.90;;;;;;5075561;28;20483;-72
2022/07/16 02:05:18;;;;;;;1.70;1.60;;;13.10;99.90;;;;;;5075066;28;20190;-72
2022/07/16 02:07:44;;;;;;;5.03;1.60;;;13.10;99.90;;;;;;5075405;28;20166;-72
2022/07/16 02:10:09;;;;;;;1.70;1.60;;;13.10;99.90;;;;;;5075209;28;20554;-72
2022/07/16 02:12:35;;;;;;;1.77;1.57;;;13.10;99.90;;;;;;5075385;28;20154;-72
2022/07/16 02:15:01;;;;;;;2.90;1.60;;;13.00;99.90;;;;;;5074865;28;20159;-72
2022/07/16 02:17:26;;;;;;;2.80;2.40;;;13.00;99.90;;;;;;5073921;28;20214;-72
2022/07/16 02:19:52;;;;;;;3.37;1.57;;;13.00;99.90;;;;;;5075015;28;20190;-72
2022/07/16 02:22:17;;;;;;;7.00;2.00;;;13.00;99.90;;;;;;5075180;28;20170;-72
2022/07/16 02:24:43;;;;;;;6.60;4.73;;;12.90;99.90;;;;;;5074732;28;20170;-72
2022/07/16 02:27:09;;;;;;;2.63;2.07;;;12.90;99.90;;;;;;5073661;28;20615;-72
2022/07/16 02:29:34;;;;;;;3.83;1.80;;;12.90;99.90;;;;;;5074804;28;20194;-72
2022/07/16 02:32:00;;;;;;;2.90;1.67;;;13.00;99.90;;;;;;5074947;28;20650;-72
2022/07/16 02:34:25;;;;;;;1.77;1.67;;;13.00;99.90;;;;;;5074607;28;20162;-72
2022/07/16 02:36:51;;;;;;;4.70;1.90;;;13.10;99.90;;;;;;5074775;28;20209;-72
2022/07/16 02:39:16;;;;;;;1.63;1.43;;;13.10;99.90;;;;;;5074806;28;20186;-72
2022/07/16 02:41:42;;;;;;;3.17;1.70;;;13.10;99.90;;;;;;5074741;28;20159;-72
2022/07/16 02:44:07;;;;;;;3.97;3.67;;;13.20;99.90;;;;;;5074634;28;20166;-72
2022/07/16 02:46:33;;;;;;;2.47;2.00;;;13.30;99.90;;;;;;5074475;28;20170;-72
2022/07/16 02:48:59;;;;;;;3.47;2.20;;;13.30;99.90;;;;;;5074512;28;20186;-72
2022/07/16 02:51:25;;;;;;;1.67;1.33;;;13.40;99.90;;;;;;5074527;28;20778;-72
2022/07/16 02:53:50;;;;;;;3.27;1.83;;;13.40;99.90;;;;;;5074557;28;20871;-72
2022/07/16 02:56:17;;;;;;;1.63;1.53;;;13.30;99.90;;;;;;5072921;28;20313;-72
2022/07/16 02:58:42;;;;;;;1.93;1.77;;;13.30;99.90;;;;;;5074430;28;20507;-72
2022/07/16 03:01:08;;;;;;;3.90;1.87;;;13.20;99.90;;;;;;5074431;28;20172;-72
2022/07/16 03:03:34;;;;;;;6.60;1.67;;;13.20;99.90;;;;;;5074454;28;20170;-72
2022/07/16 03:05:59;;;;;;;2.00;1.80;;;13.20;99.90;;;;;;5074105;28;20178;-72
2022/07/16 03:08:25;;;;;;;3.23;1.90;;;13.10;99.90;;;;;;5074282;28;20166;-72
2022/07/16 03:10:50;;;;;;;1.90;1.43;;;13.10;99.90;;;;;;5074244;28;20654;-73
2022/07/16 03:13:16;;;;;;;2.50;2.30;;;13.10;99.90;;;;;;5074064;28;20633;-72
2022/07/16 03:15:42;;;;;;;1.90;1.73;;;13.10;99.90;;;;;;5073884;28;20190;-72
2022/07/16 03:18:07;;;;;;;3.90;2.50;;;13.20;99.90;;;;;;5074113;28;20173;-72
2022/07/16 03:20:33;;;;;;;1.77;1.53;;;13.20;99.90;;;;;;5074047;28;20197;-72
2022/07/16 03:22:58;;;;;;;2.37;1.77;;;13.30;99.90;;;;;;5074008;28;20231;-72
2022/07/16 03:25:24;;;;;;;3.13;2.00;;;13.40;99.90;;;;;;5073713;28;20673;-72
2022/07/16 03:27:49;;;;;;;2.73;1.40;;;13.50;99.90;;;;;;5073847;28;20530;-72
2022/07/16 03:30:15;;;;;;;4.33;1.67;;;13.60;99.90;;;;;;5072713;28;20194;-72
2022/07/16 03:32:41;;;;;;;1.53;1.43;;;13.70;99.90;;;;;;5073781;28;20174;-72
2022/07/16 03:35:08;;;;;;;2.00;1.83;;;13.70;99.90;;;;;;5073561;28;20257;-72
2022/07/16 03:37:34;;;;;;;1.73;1.63;;;13.80;99.90;;;;;;5073610;28;20208;-72
2022/07/16 03:40:00;;;;;;;2.40;2.00;;;13.90;99.90;;;;;;5072369;28;20437;-72
2022/07/16 03:42:25;;;;;;;3.20;1.80;;;14.00;99.90;;;;;;5073519;28;20538;-72
2022/07/16 03:44:51;;;;;;;1.73;1.60;;;14.00;99.90;;;;;;5073479;28;20969;-72
2022/07/16 03:47:16;;;;;;;2.73;1.40;;;14.10;99.90;;;;;;5073526;28;20253;-72
2022/07/16 03:49:42;;;;;;;1.50;1.40;;;14.20;99.90;;;;;;5073427;28;20205;-72
2022/07/16 03:52:07;;;;;;;3.87;2.37;;;14.20;99.90;;;;;;5072021;28;20212;-72
2022/07/16 03:54:33;;;;;;;2.50;1.70;;;14.30;99.90;;;;;;5073178;28;20781;-72
2022/07/16 03:56:59;;;;;;;2.30;1.93;;;14.40;99.90;;;;;;5073245;28;20205;-72
2022/07/16 03:59:24;;;;;;;1.80;1.40;;;14.50;99.90;;;;;;5073165;28;20512;-72
2022/07/16 04:01:50;;;;;;;3.37;2.23;;;14.50;99.90;;;;;;5072725;28;20241;-72
2022/07/16 04:04:15;;;;;;;2.40;1.50;;;14.60;99.90;;;;;;5072997;28;20163;-72
2022/07/16 04:06:41;;;;;;;1.90;1.53;;;14.60;99.90;;;;;;5073240;28;20182;-72
2022/07/16 04:09:06;;;;;;;1.73;1.63;;;14.70;99.90;;;;;;5071793;28;20190;-72
2022/07/16 04:11:32;;;;;;;2.47;1.77;;;14.70;99.90;;;;;;5072987;28;20173;-72
2022/07/16 04:13:58;;;;;;;2.37;1.97;;;14.80;99.90;;;;;;5073037;28;20177;-72
2022/07/16 04:16:23;;;;;;;8.40;2.27;;;14.80;99.90;;;;;;5072581;28;20198;-72
2022/07/16 04:18:49;;;;;;;2.90;1.67;;;14.90;99.90;;;;;;5072751;28;20523;-72
2022/07/16 04:21:14;;;;;;;1.70;1.40;;;15.00;99.90;;;;;;5072824;28;20220;-72
2022/07/16 04:23:40;;;;;;;2.50;1.90;;;15.00;99.90;;;;;;5072785;28;20174;-72
2022/07/16 04:26:05;;;;;;;5.37;2.07;;;15.10;99.90;;;;;;5072520;28;20215;-72
2022/07/16 04:28:31;;;;;;;1.53;1.43;;;15.20;99.90;;;;;;5071380;28;20196;-72
2022/07/16 04:30:57;;;;;;;1.67;1.57;;;15.20;99.90;;;;;;5072795;28;20639;-73
2022/07/16 04:33:22;;;;;;;8.43;2.17;;;15.30;99.90;;;;;;5072533;28;20170;-72
2022/07/16 04:35:48;;;;;;;3.97;2.00;;;15.40;99.90;;;;;;5072300;28;20213;-72
2022/07/16 04:38:14;;;;;;;1.43;1.33;;;15.50;99.90;;;;;;5072599;28;20170;-72
2022/07/16 04:40:40;;;;;;;2.90;1.37;;;15.50;99.90;;;;;;5072412;28;20559;-73
2022/07/16 04:43:06;;;;;;;2.30;1.50;;;15.50;99.90;;;;;;5072505;28;20396;-72
2022/07/16 04:45:31;;;;;;;2.47;1.53;;;15.60;99.90;;;;;;5070825;28;20166;-72
2022/07/16 04:47:57;;;;;;;3.83;1.90;;;15.70;99.90;;;;;;5072436;28;20178;-73
2022/07/16 04:50:23;;;;;;;2.00;1.70;;;15.80;99.90;;;;;;5072281;28;20182;-73
2022/07/16 04:52:48;;;;;;;2.60;1.40;;;15.90;99.90;;;;;;5072353;28;20433;-73
2022/07/16 04:55:14;;;;;;;3.60;1.10;;;16.00;99.90;;;;;;5071994;28;20181;-73
2022/07/16 04:57:39;;;;;;;2.33;1.90;;;16.10;99.90;;;;;;5072232;28;20655;-73
2022/07/16 05:00:06;;;;;;;1.83;1.50;;;16.30;99.90;;;;;;5072184;28;20188;-73
2022/07/16 05:05:19;;;;;;;2.73;1.43;;;16.50;99.90;;;;;;5071875;28;20431;-73
2022/07/16 05:07:46;;;;;;;3.83;1.63;;;16.60;99.90;;;;;;5072141;28;20895;-73
2022/07/16 05:10:11;;;;;;;2.43;1.33;;;16.60;99.90;;;;;;5072006;28;20424;-73
2022/07/16 05:12:37;;;;;;;2.03;1.60;;;16.70;99.90;;;;;;5069929;28;20539;-73
2022/07/16 05:15:03;;;;;;;1.50;1.03;;;16.80;99.90;;;;;;5071852;28;20194;-73
2022/07/16 05:17:28;;;;;;;1.43;1.30;;;16.90;99.90;;;;;;5072032;28;20190;-73
2022/07/16 05:19:54;;;;;;;2.87;1.57;;;16.90;99.90;;;;;;5071928;28;20431;-73
2022/07/16 05:22:19;;;;;;;1.80;1.30;;;16.90;99.90;;;;;;5072094;28;20243;-73
2022/07/16 05:24:45;;;;;;;1.50;1.30;;;17.00;99.90;;;;;;5070494;28;20216;-73
2022/07/16 05:27:10;;;;;;;2.00;1.80;;;17.00;99.90;;;;;;5070729;28;20239;-72
2022/07/16 05:29:36;;;;;;;2.60;1.60;;;17.10;99.90;;;;;;5071804;28;20663;-73
2022/07/16 05:32:01;;;;;;;2.50;1.53;;;17.20;99.90;;;;;;5071986;28;20180;-73
2022/07/16 05:34:27;;;;;;;4.80;1.77;;;17.30;99.90;;;;;;5071749;28;20545;-73
2022/07/16 05:36:52;;;;;;;1.63;1.33;;;17.50;99.90;;;;;;5071823;28;20663;-73
2022/07/16 05:39:19;;;;;;;2.73;1.70;;;17.60;99.90;;;;;;5071743;28;20571;-73
2022/07/16 05:41:44;;;;;;;3.10;1.50;;;17.70;99.90;;;;;;5071809;28;20202;-73
2022/07/16 05:44:10;;;;;;;2.73;1.77;;;17.80;99.90;;;;;;5071672;28;20396;-73
2022/07/16 05:46:35;;;;;;;1.63;1.10;;;17.90;99.90;;;;;;5071496;28;20171;-73
2022/07/16 05:49:01;;;;;;;3.57;1.47;;;17.90;99.90;;;;;;5071664;28;20193;-73
2022/07/16 05:51:26;;;;;;;1.60;1.23;;;18.00;99.90;;;;;;5071693;28;20223;-73
2022/07/16 05:53:52;;;;;;;2.50;1.30;;;18.10;99.90;;;;;;5071640;28;20225;-73
2022/07/16 05:56:17;;;;;;;2.40;1.50;;;18.20;99.90;;;;;;5071298;28;20198;-72
2022/07/16 05:58:43;;;;;;;1.60;1.40;;;18.50;99.90;;;;;;5071594;28;20190;-73
2022/07/16 06:01:09;;;;;;;1.60;1.30;;;18.60;99.90;;;;;;5071662;28;20525;-73
2022/07/16 06:03:37;;;;;;;2.27;1.50;;;18.80;99.90;;;;;;5071609;28;20167;-73
2022/07/16 06:06:02;;;;;;;2.97;1.07;;;19.00;99.90;;;;;;5071346;28;20409;-73
2022/07/16 06:08:28;;;;;;;1.70;1.20;;;19.10;99.90;;;;;;5071461;28;20418;-73
2022/07/16 06:10:54;;;;;;;3.47;1.60;;;19.20;99.90;;;;;;5071528;28;20180;-74
2022/07/16 06:13:19;;;;;;;2.57;1.57;;;19.40;99.90;;;;;;5071514;28;20539;-73
2022/07/16 06:15:48;;;;;;;1.40;1.03;;;19.60;99.90;;;;;;5071155;28;20198;-73
2022/07/16 06:18:13;;;;;;;3.63;1.80;;;19.60;99.90;;;;;;5071506;28;20250;-73
2022/07/16 06:20:39;;;;;;;2.00;1.57;;;19.70;99.90;;;;;;5071479;28;20448;-73
2022/07/16 06:23:04;;;;;;;2.13;1.77;;;19.80;99.90;;;;;;5071420;28;20189;-73
2022/07/16 06:25:30;;;;;;;2.23;1.60;;;19.80;99.90;;;;;;5074276;28;20239;-73
2022/07/16 06:27:55;;;;;;;2.33;1.77;;;19.80;99.90;;;;;;5073793;28;20280;-73
2022/07/16 06:30:21;;;;;;;1.70;1.33;;;19.80;99.90;;;;;;5074993;28;20182;-73
2022/07/16 06:32:46;;;;;;;2.63;1.40;;;19.80;99.90;;;;;;5075008;28;20173;-73
2022/07/16 06:35:12;;;;;;;5.70;1.93;;;19.90;99.90;;;;;;5074728;28;20173;-73
2022/07/16 06:37:39;;;;;;;3.23;1.60;;;19.90;99.90;;;;;;5074784;28;20201;-72
2022/07/16 06:40:05;;;;;;;1.60;1.50;;;19.90;99.90;;;;;;5074705;28;20493;-73
2022/07/16 06:42:31;;;;;;;1.90;1.33;;;19.90;99.90;;;;;;5074699;28;20753;-73
2022/07/16 06:44:57;;;;;;;4.50;2.03;;;20.00;99.90;;;;;;5074445;28;20469;-73
2022/07/16 06:47:22;;;;;;;2.27;1.90;;;20.20;99.90;;;;;;5073541;28;20404;-73
2022/07/16 06:49:48;;;;;;;3.67;1.77;;;20.30;99.90;;;;;;5074572;28;20320;-73
2022/07/16 06:52:13;;;;;;;1.60;1.47;;;20.40;99.90;;;;;;5074583;28;20186;-73
2022/07/16 06:54:39;;;;;;;2.13;1.73;;;20.60;99.90;;;;;;5074226;28;20536;-73
2022/07/16 06:57:04;;;;;;;3.50;1.87;;;20.80;99.90;;;;;;5074489;28;20706;-73
2022/07/16 06:59:30;;;;;;;2.13;1.93;;;20.90;99.90;;;;;;5074425;28;20186;-72
2022/07/16 07:01:56;;;;;;;3.77;1.90;;;21.00;99.90;;;;;;5073238;28;20166;-73
2022/07/16 07:04:21;;;;;;;2.83;2.10;;;21.10;99.90;;;;;;5074123;28;20170;-73
2022/07/16 07:06:47;;;;;;;3.43;3.00;;;21.20;99.90;;;;;;5074512;28;20166;-73
2022/07/16 07:09:12;;;;;;;3.70;1.90;;;21.20;99.90;;;;;;5074164;28;20230;-73
2022/07/16 07:11:38;;;;;;;2.13;1.90;;;21.20;99.90;;;;;;5074198;28;20573;-73
2022/07/16 07:14:04;;;;;;;5.03;2.07;;;21.10;99.90;;;;;;5074218;28;20174;-73
2022/07/16 07:16:29;;;;;;;5.77;2.37;;;21.10;99.90;;;;;;5073913;28;20202;-73
2022/07/16 07:18:55;;;;;;;2.43;2.10;;;21.10;99.90;;;;;;5074173;28;20202;-73
2022/07/16 07:21:20;;;;;;;2.57;1.97;;;21.00;99.90;;;;;;5074110;28;20170;-73
2022/07/16 07:23:46;;;;;;;3.80;2.00;;;21.10;99.90;;;;;;5072700;28;20261;-73
2022/07/16 07:26:11;;;;;;;2.10;1.80;;;21.40;99.90;;;;;;5073748;28;20644;-73
2022/07/16 07:28:37;;;;;;;3.47;1.83;;;22.10;99.90;;;;;;5073892;28;20508;-73
2022/07/16 07:31:03;;;;;;;2.63;2.43;;;23.10;99.90;;;;;;5072849;28;20196;-74
2022/07/16 07:33:28;;;;;;;5.70;1.90;;;24.20;99.90;;;;;;5072633;28;20177;-73
2022/07/16 07:35:54;;;;;;;2.60;2.13;;;25.50;99.90;;;;;;5072492;28;20194;-73
2022/07/16 07:38:19;;;;;;;4.63;2.80;;;26.80;99.90;;;;;;5073771;28;20162;-74
2022/07/16 07:40:46;;;;;;;2.03;1.83;;;27.60;97.10;;;;;;5073529;28;20184;-73
2022/07/16 07:43:12;;;;;;;4.70;2.53;;;28.40;93.10;;;;;;5073677;28;20227;-73
2022/07/16 07:45:38;;;;;;;2.37;1.90;;;29.20;88.90;;;;;;5073362;28;20807;-74
2022/07/16 07:48:04;;;;;;;2.70;2.00;;;29.80;81.00;;;;;;5073651;28;20193;-74
2022/07/16 07:50:30;;;;;;;7.27;2.37;;;30.10;76.70;;;;;;5072204;28;20443;-74
2022/07/16 07:52:55;;;;;;;4.00;2.60;;;30.20;72.10;;;;;;5073331;28;20519;-74
2022/07/16 07:55:21;;;;;;;5.10;2.70;;;30.10;71.40;;;;;;5073089;28;20245;-73
2022/07/16 07:57:46;;;;;;;3.93;2.37;;;29.90;70.20;;;;;;5073338;28;20225;-74
2022/07/16 08:00:12;;;;;;;3.27;2.77;;;29.70;71.90;;;;;;5073309;28;20192;-74
2022/07/16 08:02:42;;;;;;;2.70;2.50;;;29.60;71.10;;;;;;5073602;28;20204;-73
2022/07/16 08:05:09;;;;;;;2.50;1.97;;;29.90;71.00;;;;;;5072896;28;20249;-74
2022/07/16 08:07:35;;;;;;;2.80;2.20;;;30.30;70.30;;;;;;5073178;28;20436;-73
2022/07/16 08:10:00;;;;;;;2.20;2.00;;;30.90;66.10;;;;;;5072892;28;20941;-73
2022/07/16 08:12:26;;;;;;;4.77;3.10;;;31.30;67.30;;;;;;5073094;28;20170;-73
2022/07/16 08:14:52;;;;;;;12.53;3.20;;;31.70;61.70;;;;;;5072702;28;20569;-74
2022/07/16 08:17:17;;;;;;;2.70;2.50;;;31.60;62.10;;;;;;5071726;28;20202;-73
2022/07/16 08:19:43;;;;;;;2.70;2.50;;;31.10;62.60;;;;;;5072946;28;20186;-73
2022/07/16 08:22:08;;;;;;;3.40;2.23;;;31.20;62.30;;;;;;5072859;28;20169;-73
2022/07/16 08:27:18;;;;;;;2.03;1.83;;;32.80;58.10;;;;;;5072904;28;20174;-72
2022/07/16 08:29:43;;;;;;;3.30;3.00;;;33.70;56.90;;;;;;5072696;28;20425;-73
2022/07/16 08:32:09;;;;;;;2.67;2.20;;;34.10;55.60;;;;;;5072773;28;20247;-72
2022/07/16 08:34:34;;;;;;;4.47;2.30;;;33.80;54.60;;;;;;5072468;28;20173;-72
2022/07/16 08:37:00;;;;;;;2.77;2.57;;;33.40;55.80;;;;;;5072594;28;20539;-71
2022/07/16 08:39:27;;;;;;;6.40;2.37;;;32.90;54.80;;;;;;5072557;28;20178;-72
2022/07/16 08:41:54;;;;;;;2.27;2.10;;;32.30;54.40;;;;;;5072580;28;20269;-72
2022/07/16 08:44:20;;;;;;;2.40;2.20;;;32.10;56.40;;;;;;5072361;28;20495;-72
2022/07/16 08:46:46;;;;;;;6.50;1.97;;;31.60;56.70;;;;;;5072265;28;20496;-72
2022/07/16 08:49:12;;;;;;;2.10;1.90;;;31.20;57.00;;;;;;5072418;28;20248;-72
2022/07/16 08:51:39;;;;;;;2.70;2.13;;;30.90;59.30;;;;;;5072304;28;20404;-74
2022/07/16 08:54:16;;;;;;;2.43;2.17;;;30.70;59.40;;;;;;5072380;28;20257;-74
2022/07/16 08:56:44;;;;;;;5.53;2.90;;;31.10;59.30;;;;;;5072337;28;20451;-74
2022/07/16 08:59:12;;;;;;;2.87;2.20;;;31.30;59.60;;;;;;5072508;28;20417;-74
2022/07/16 09:01:38;;;;;;;1.50;1.40;;;31.10;58.90;;;;;;5072574;28;20408;-74
2022/07/16 09:04:04;;;;;;;1.83;1.73;;;30.60;59.50;;;;;;5071274;28;20913;-74
2022/07/16 09:06:30;;;;;;;2.80;2.00;;;29.90;60.00;;;;;;5072042;28;20190;-73
2022/07/16 09:08:56;;;;;;;1.83;1.73;;;29.30;62.10;;;;;;5072001;28;20435;-73
2022/07/16 09:11:41;;;;;;;2.07;1.60;;;28.50;65.00;;;;;;5072096;28;20404;-73
2022/07/16 09:14:06;;;;;;;2.00;1.70;;;27.70;68.40;;;;;;5072175;28;20928;-73
2022/07/16 09:16:33;;;;;;;1.87;1.47;;;27.20;72.50;;;;;;5071559;28;20444;-73
2022/07/16 09:19:10;;;;;;;2.03;1.83;;;26.70;76.20;;;;;;5071578;28;20261;-73
2022/07/16 09:21:37;;;;;;;1.77;1.30;;;27.60;76.80;;;;;;5072422;28;20817;-74
2022/07/16 09:24:04;;;;;;;1.90;1.80;;;28.30;75.40;;;;;;5071918;28;20393;-73
2022/07/16 09:26:30;;;;;;;2.70;1.83;;;28.80;73.90;;;;;;5071736;28;20492;-73
2022/07/16 09:29:01;;;;;;;2.93;2.73;;;28.80;72.60;;;;;;5071789;28;20452;-73
2022/07/16 09:31:32;;;;;;;1.60;1.50;;;28.60;69.30;;;;;;5072056;28;20178;-73
2022/07/16 09:34:05;;;;;;;1.30;1.20;;;28.50;69.80;;;;;;5072033;28;20764;-74
2022/07/16 09:36:30;;;;;;;1.50;1.30;;;28.40;70.00;;;;;;5071555;28;20467;-73
2022/07/16 09:38:56;;;;;;;1.30;0.93;;;28.40;69.20;;;;;;5071854;28;20416;-74
2022/07/16 09:41:22;;;;;;;2.17;1.03;;;28.20;67.00;;;;;;5071865;28;20162;-73
2022/07/16 09:43:49;;;;;;;1.83;1.50;;;28.20;67.40;;;;;;5071770;28;20245;-73
2022/07/16 09:46:23;;;;;;;2.30;1.10;;;28.50;65.50;;;;;;5071533;28;20763;-73
2022/07/16 09:48:50;;;;;;;3.03;1.57;;;29.20;62.80;;;;;;5071607;28;20428;-74
2022/07/16 09:51:17;;;;;;;2.23;1.40;;;29.60;58.60;;;;;;5072008;28;20412;-73
2022/07/16 09:53:43;;;;;;;1.80;1.37;;;29.90;59.40;;;;;;5070252;28;20519;-73
2022/07/16 09:56:17;;;;;;;2.73;1.20;;;30.10;58.20;;;;;;5071211;28;20444;-73
2022/07/16 09:58:48;;;;;;;1.93;1.37;;;31.00;58.20;;;;;;5072220;28;20405;-74
2022/07/16 10:01:16;;;;;;;1.17;1.07;;;32.30;54.00;;;;;;5075611;28;20408;-74
2022/07/16 10:03:42;;;;;;;1.33;1.13;;;32.60;51.80;;;;;;5075547;28;20396;-73
2022/07/16 10:06:09;;;;;;;1.10;1.00;;;33.10;53.90;;;;;;5075949;28;20412;-75
2022/07/16 10:08:35;;;;;;;1.10;1.00;;;33.80;50.70;;;;;;5075952;28;20787;-74
2022/07/16 10:11:01;;;;;;;1.70;1.10;;;34.10;45.90;;;;;;5076050;28;20889;-75
2022/07/16 10:13:28;;;;;;;1.20;1.00;;;34.20;45.70;;;;;;5074971;28;20420;-75
2022/07/16 10:15:54;;;;;;;1.43;1.03;;;34.70;46.30;;;;;;5075222;28;20205;-74
2022/07/16 10:18:34;;;;;;;1.40;1.17;;;35.20;44.30;;;;;;5075264;28;20404;-74
2022/07/16 10:21:06;;;;;;;1.50;1.13;;;35.90;45.10;;;;;;5075188;28;20404;-74
2022/07/16 10:23:32;;;;;;;1.20;1.10;;;36.50;41.60;;;;;;5075151;28;20400;-72
2022/07/16 10:26:00;;;;;;;1.37;1.23;;;36.40;41.40;;;;;;5074805;28;20767;-73
2022/07/16 10:28:36;;;;;;;1.20;1.07;;;36.20;41.30;;;;;;5074907;28;20809;-73
2022/07/16 10:31:38;;;;;;;1.20;1.10;;;35.80;39.80;;;;;;5075047;28;20431;-73
2022/07/16 10:34:13;;;;;;;1.20;1.10;;;36.70;39.90;;;;;;5074905;28;20392;-73
2022/07/16 10:36:47;;;;;;;1.40;1.10;;;38.30;38.70;;;;;;5075087;28;20876;-73
2022/07/16 10:39:16;;;;;;;1.60;1.50;;;39.10;38.50;;;;;;5075133;28;20452;-75
2022/07/16 10:41:50;;;;;;;1.77;1.67;;;40.20;38.00;;;;;;5074444;28;20421;-75
2022/07/16 10:44:16;;;;;;;1.67;1.57;;;41.20;35.20;;;;;;5074081;28;20462;-74
2022/07/16 10:46:59;;;;;;;1.40;1.30;;;42.10;32.50;;;;;;5074822;28;20391;-74
2022/07/16 10:49:27;;;;;;;2.00;1.80;;;42.70;32.00;;;;;;5074594;28;20399;-74
2022/07/16 10:51:53;;;;;;;1.60;1.50;;;43.30;31.10;;;;;;5074103;28;20463;-75
2022/07/16 10:54:18;;;;;;;2.30;2.10;;;42.80;30.60;;;;;;5073994;28;20384;-75
2022/07/16 10:56:50;;;;;;;2.23;1.50;;;41.60;30.00;;;;;;5074987;28;20461;-75
2022/07/16 10:59:21;;;;;;;1.20;1.10;;;40.80;31.90;;;;;;5074647;28;20610;-75
2022/07/16 11:01:51;;;;;;;2.50;1.77;;;41.40;31.70;;;;;;5074492;28;20392;-75
2022/07/16 11:04:26;;;;;;;1.70;1.60;;;41.80;30.90;;;;;;5074202;28;20416;-75
2022/07/16 11:06:51;;;;;;;1.83;1.60;;;42.80;30.00;;;;;;5075652;28;20467;-75
2022/07/16 11:09:33;;;;;;;1.70;1.60;;;43.80;31.00;;;;;;5075928;28;20452;-75
2022/07/16 11:12:07;;;;;;;1.60;1.50;;;44.00;29.90;;;;;;5074555;28;20170;-75
2022/07/16 11:14:33;;;;;;;1.30;1.20;;;43.20;29.50;;;;;;5074483;28;20405;-74
2022/07/16 11:16:58;;;;;;;1.40;1.30;;;41.70;29.70;;;;;;5074072;28;20440;-74
2022/07/16 11:19:25;;;;;;;4.47;1.10;;;40.30;30.30;;;;;;5074062;28;20183;-75
2022/07/16 11:22:01;;;;;;;1.30;1.20;;;40.00;32.10;;;;;;5074159;28;20652;-74
2022/07/16 11:24:28;;;;;;;1.10;1.00;;;39.30;31.20;;;;;;5072513;28;20495;-74
2022/07/16 11:26:56;;;;;;;2.80;1.67;;;39.10;32.50;;;;;;5074041;28;20439;-74
2022/07/16 11:29:24;;;;;;;1.40;1.30;;;39.40;32.10;;;;;;5073857;28;20435;-74
2022/07/16 11:31:50;;;;;;;3.03;1.40;;;40.20;32.60;;;;;;5073847;28;20439;-74
2022/07/16 11:34:22;;;;;;;1.70;1.50;;;41.40;31.00;;;;;;5073525;28;20397;-74
2022/07/16 11:36:51;;;;;;;1.70;1.53;;;42.20;29.60;;;;;;5073853;28;20427;-74
2022/07/16 11:39:21;;;;;;;1.50;1.40;;;41.70;30.00;;;;;;5073729;28;20420;-74
2022/07/16 11:41:50;;;;;;;1.10;1.00;;;40.50;30.00;;;;;;5073692;28;20869;-73
2022/07/16 11:44:21;;;;;;;1.60;1.50;;;39.00;31.30;;;;;;5073385;28;20393;-74
2022/07/16 11:46:51;;;;;;;1.30;1.20;;;37.60;32.30;;;;;;5073565;28;20400;-73
2022/07/16 11:49:23;;;;;;;1.37;1.17;;;36.50;32.30;;;;;;5073568;28;20498;-74
2022/07/16 11:51:49;;;;;;;1.97;1.37;;;35.30;34.00;;;;;;5072205;28;20444;-74
2022/07/16 11:54:15;;;;;;;1.53;1.37;;;35.60;36.20;;;;;;5073311;28;20477;-74
2022/07/16 11:56:41;;;;;;;2.10;1.07;;;36.50;33.70;;;;;;5072082;28;20232;-74
2022/07/16 11:59:17;;;;;;;1.47;1.37;;;36.30;33.70;;;;;;5073220;28;20269;-73
2022/07/16 12:01:43;;;;;;;1.17;1.07;;;36.10;34.20;;;;;;5073286;28;20495;-73
2022/07/16 12:04:09;;;;;;;3.67;1.23;;;36.20;35.10;;;;;;5071909;28;20840;-73
2022/07/16 12:06:35;;;;;;;1.43;1.20;;;37.40;35.60;;;;;;5072637;28;20253;-73
2022/07/16 12:09:00;;;;;;;1.50;1.20;;;37.60;33.30;;;;;;5073122;28;20243;-73
2022/07/16 12:11:34;;;;;;;4.40;1.40;;;37.90;33.30;;;;;;5074381;28;20460;-75
2022/07/16 12:14:01;;;;;;;2.27;1.53;;;38.70;34.20;;;;;;5073655;28;20670;-75
2022/07/16 12:16:27;;;;;;;1.80;1.50;;;39.50;32.10;;;;;;5073400;28;20444;-74
2022/07/16 12:19:12;;;;;;;1.57;1.47;;;40.60;32.60;;;;;;5072676;28;20410;-74
2022/07/16 12:21:39;;;;;;;1.53;1.43;;;42.00;31.70;;;;;;5072981;28;20416;-76
2022/07/16 12:24:08;;;;;;;1.50;1.40;;;42.50;29.60;;;;;;5073474;28;20455;-75
2022/07/16 12:26:36;;;;;;;3.00;1.90;;;42.70;30.30;;;;;;5073746;28;20408;-74
2022/07/16 12:29:04;;;;;;;1.90;1.33;;;41.40;30.00;;;;;;5074976;28;20495;-75
2022/07/16 12:31:31;;;;;;;1.17;1.07;;;39.70;30.90;;;;;;5072646;28;20379;-73
2022/07/16 12:33:58;;;;;;;1.27;1.17;;;38.10;32.90;;;;;;5073765;28;20906;-75
2022/07/16 12:36:35;;;;;;;1.23;1.10;;;37.00;33.50;;;;;;5074988;28;20440;-75
2022/07/16 12:39:07;;;;;;;1.37;1.27;;;37.70;34.30;;;;;;5074765;28;20909;-75
2022/07/16 12:41:36;;;;;;;2.23;1.27;;;39.00;33.10;;;;;;5075214;28;20667;-75
2022/07/16 12:44:07;;;;;;;2.10;1.80;;;40.20;32.20;;;;;;5073804;28;20404;-75
2022/07/16 12:46:37;;;;;;;1.87;1.67;;;41.20;31.00;;;;;;5074783;28;20401;-75
2022/07/16 12:49:10;;;;;;;1.40;1.30;;;41.50;30.50;;;;;;5072565;28;20403;-75
2022/07/16 12:51:39;;;;;;;1.80;1.70;;;41.80;29.60;;;;;;5072675;28;20396;-75
2022/07/16 12:54:06;;;;;;;2.97;1.23;;;41.40;30.70;;;;;;5071157;28;20447;-75